createdAt,value
2017-12-11T00:00:05.212Z,41.60
2017-12-11T00:02:08.550Z,41.30
2017-12-11T00:04:12.103Z,41.80
2017-12-11T00:06:15.578Z,41.60
2017-12-11T00:08:19.343Z,42.00
2017-12-11T00:10:22.840Z,43.00
2017-12-11T00:12:26.336Z,42.20
2017-12-11T00:14:30.594Z,42.40
2017-12-11T00:16:34.035Z,42.20
2017-12-11T00:18:37.535Z,42.50
2017-12-11T00:20:41.030Z,41.90
2017-12-11T00:22:48.310Z,42.70
2017-12-11T00:24:51.794Z,42.80
2017-12-11T00:26:55.271Z,43.10
2017-12-11T00:28:59.507Z,43.00
2017-12-11T00:31:02.958Z,43.00
2017-12-11T00:33:06.455Z,43.00
2017-12-11T00:35:09.935Z,43.30
2017-12-11T00:37:13.382Z,43.60
2017-12-11T00:39:16.876Z,43.70
2017-12-11T00:41:20.323Z,44.20
2017-12-11T00:43:23.781Z,43.80
2017-12-11T00:45:27.330Z,44.20
2017-12-11T00:47:30.814Z,43.80
2017-12-11T00:49:34.316Z,44.50
2017-12-11T00:51:38.586Z,44.10
2017-12-11T00:53:42.074Z,44.10
2017-12-11T00:55:45.572Z,44.30
2017-12-11T00:57:50.540Z,43.70
2017-12-11T00:59:54.751Z,43.80
2017-12-11T01:01:58.246Z,43.70
2017-12-11T01:04:02.478Z,44.00
2017-12-11T01:06:05.985Z,43.90
2017-12-11T01:08:09.500Z,44.30
2017-12-11T01:10:12.982Z,43.70
2017-12-11T01:12:16.446Z,44.10
2017-12-11T01:14:20.668Z,43.80
2017-12-11T01:16:24.219Z,43.70
2017-12-11T01:18:27.699Z,43.60
2017-12-11T01:20:31.167Z,43.70
2017-12-11T01:22:34.661Z,43.80
2017-12-11T01:24:38.133Z,44.20
2017-12-11T01:26:43.165Z,44.10
2017-12-11T01:28:46.666Z,44.00
2017-12-11T01:30:50.157Z,44.10
2017-12-11T01:32:53.642Z,44.60
2017-12-11T01:34:57.147Z,43.90
2017-12-11T01:37:01.381Z,45.60
2017-12-11T01:39:04.909Z,45.80
2017-12-11T01:41:09.314Z,46.10
2017-12-11T01:43:12.842Z,46.20
2017-12-11T01:45:17.079Z,46.10
2017-12-11T01:47:20.592Z,46.10
2017-12-11T01:49:24.142Z,46.70
2017-12-11T01:51:28.394Z,46.60
2017-12-11T01:53:31.862Z,46.70
2017-12-11T01:55:35.311Z,46.40
2017-12-11T01:57:38.776Z,47.50
2017-12-11T01:59:42.989Z,48.70
2017-12-11T02:01:46.436Z,48.80
2017-12-11T02:03:50.691Z,48.20
2017-12-11T02:05:54.202Z,48.60
2017-12-11T02:07:57.690Z,49.30
2017-12-11T02:10:01.255Z,49.70
2017-12-11T02:12:04.696Z,49.50
2017-12-11T02:14:08.173Z,50.80
2017-12-11T02:16:12.382Z,50.40
2017-12-11T02:18:15.869Z,50.60
2017-12-11T02:20:19.386Z,51.50
2017-12-11T02:22:23.493Z,51.20
2017-12-11T02:24:27.022Z,51.50
2017-12-11T02:26:30.479Z,51.50
2017-12-11T02:28:33.978Z,51.40
2017-12-11T02:30:37.503Z,51.50
2017-12-11T02:32:40.997Z,51.90
2017-12-11T02:34:44.535Z,51.40
2017-12-11T02:36:48.165Z,51.70
2017-12-11T02:38:51.732Z,51.60
2017-12-11T02:40:55.924Z,51.60
2017-12-11T02:42:59.386Z,52.20
2017-12-11T02:45:02.977Z,51.20
2017-12-11T02:47:06.462Z,52.00
2017-12-11T02:49:10.743Z,53.30
2017-12-11T02:51:14.230Z,52.60
2017-12-11T02:53:19.023Z,52.60
2017-12-11T02:55:22.553Z,52.80
2017-12-11T02:57:26.790Z,53.20
2017-12-11T02:59:30.271Z,53.30
2017-12-11T03:01:33.808Z,52.60
2017-12-11T03:03:37.244Z,52.50
2017-12-11T03:05:40.709Z,52.10
2017-12-11T03:07:44.189Z,52.00
2017-12-11T03:09:47.631Z,52.40
2017-12-11T03:11:51.848Z,52.70
2017-12-11T03:13:55.338Z,52.40
2017-12-11T03:15:58.797Z,52.80
2017-12-11T03:18:02.276Z,52.70
2017-12-11T03:20:05.723Z,53.40
2017-12-11T03:22:09.251Z,53.60
2017-12-11T03:24:12.695Z,52.60
2017-12-11T03:26:16.161Z,52.90
2017-12-11T03:28:19.666Z,53.20
2017-12-11T03:30:23.139Z,53.30
2017-12-11T03:32:26.669Z,53.00
2017-12-11T03:34:30.167Z,52.70
2017-12-11T03:36:34.375Z,54.00
2017-12-11T03:38:38.686Z,53.90
2017-12-11T03:40:42.154Z,53.80
2017-12-11T03:42:45.624Z,54.20
2017-12-11T03:44:49.122Z,54.70
2017-12-11T03:46:52.543Z,54.50
2017-12-11T03:48:56.021Z,54.60
2017-12-11T03:51:00.265Z,54.30
2017-12-11T03:53:03.719Z,54.30
2017-12-11T03:55:07.247Z,54.80
2017-12-11T03:57:10.708Z,55.00
2017-12-11T03:59:14.172Z,55.10
2017-12-11T04:01:17.629Z,55.50
2017-12-11T04:03:21.052Z,55.90
2017-12-11T04:05:24.550Z,55.30
2017-12-11T04:07:28.780Z,56.50
2017-12-11T04:09:36.202Z,56.50
2017-12-11T04:11:39.684Z,56.70
2017-12-11T04:13:44.762Z,55.60
2017-12-11T04:15:48.209Z,55.50
2017-12-11T04:17:51.635Z,55.70
2017-12-11T04:19:55.073Z,55.80
2017-12-11T04:21:58.550Z,56.20
2017-12-11T04:24:03.066Z,57.40
2017-12-11T04:26:07.308Z,56.80
2017-12-11T04:28:10.736Z,56.80
2017-12-11T04:30:14.169Z,57.90
2017-12-11T04:32:18.424Z,59.40
2017-12-11T04:34:21.879Z,59.10
2017-12-11T04:36:26.098Z,59.30
2017-12-11T04:38:29.533Z,59.50
2017-12-11T04:40:32.960Z,59.70
2017-12-11T04:42:37.240Z,59.70
2017-12-11T04:44:40.716Z,59.50
2017-12-11T04:46:44.179Z,59.30
2017-12-11T04:48:47.666Z,59.40
2017-12-11T04:50:51.863Z,59.20
2017-12-11T04:52:55.293Z,59.10
2017-12-11T04:54:59.561Z,59.50
2017-12-11T04:57:03.817Z,60.60
2017-12-11T04:59:07.238Z,60.50
2017-12-11T05:01:10.660Z,60.20
2017-12-11T05:03:14.177Z,60.80
2017-12-11T05:05:18.412Z,61.60
2017-12-11T05:07:21.907Z,61.80
2017-12-11T05:09:25.378Z,62.40
2017-12-11T05:11:29.593Z,62.30
2017-12-11T05:13:33.094Z,62.20
2017-12-11T05:15:36.624Z,62.50
2017-12-11T05:17:40.158Z,61.70
2017-12-11T05:19:44.422Z,62.40
2017-12-11T05:21:47.890Z,62.30
2017-12-11T05:23:52.397Z,62.20
2017-12-11T05:25:56.634Z,62.40
2017-12-11T05:28:00.074Z,62.40
2017-12-11T05:30:03.564Z,62.80
2017-12-11T05:32:07.043Z,62.50
2017-12-11T05:34:10.560Z,62.60
2017-12-11T05:36:14.185Z,62.80
2017-12-11T05:38:19.755Z,62.80
2017-12-11T05:40:23.554Z,62.30
2017-12-11T05:42:28.345Z,62.60
2017-12-11T05:44:32.629Z,62.00
2017-12-11T05:46:36.084Z,62.90
2017-12-11T05:48:39.551Z,62.10
2017-12-11T05:50:43.806Z,62.60
2017-12-11T05:52:47.240Z,61.80
2017-12-11T05:54:50.753Z,62.70
2017-12-11T05:56:54.999Z,62.60
2017-12-11T05:58:58.491Z,63.10
2017-12-11T06:01:01.938Z,63.00
2017-12-11T06:03:06.163Z,63.40
2017-12-11T06:05:10.406Z,63.40
2017-12-11T06:07:13.928Z,63.40
2017-12-11T06:09:17.373Z,63.50
2017-12-11T06:11:20.843Z,63.50
2017-12-11T06:13:24.279Z,63.40
2017-12-11T06:15:28.479Z,63.00
2017-12-11T06:17:32.729Z,64.00
2017-12-11T06:19:36.172Z,64.00
2017-12-11T06:21:40.403Z,63.80
2017-12-11T06:23:45.870Z,64.50
2017-12-11T06:25:49.318Z,64.20
2017-12-11T06:27:52.771Z,63.70
2017-12-11T06:29:56.173Z,64.30
2017-12-11T06:31:59.659Z,64.50
2017-12-11T06:34:03.111Z,64.30
2017-12-11T06:36:06.540Z,64.20
2017-12-11T06:38:10.854Z,64.20
2017-12-11T06:40:14.268Z,64.60
2017-12-11T06:42:17.713Z,64.80
2017-12-11T06:44:21.923Z,64.20
2017-12-11T06:46:25.375Z,64.30
2017-12-11T06:48:28.870Z,64.60
2017-12-11T06:50:32.319Z,64.80
2017-12-11T06:52:35.767Z,64.60
2017-12-11T06:54:39.230Z,64.70
2017-12-11T06:56:42.703Z,64.50
2017-12-11T06:58:46.226Z,65.00
2017-12-11T07:00:49.681Z,65.10
2017-12-11T07:02:53.203Z,65.00
2017-12-11T07:04:56.742Z,64.20
2017-12-11T07:07:00.957Z,64.60
2017-12-11T07:09:04.535Z,64.60
2017-12-11T07:11:07.992Z,64.60
2017-12-11T07:13:11.535Z,64.20
2017-12-11T07:15:18.813Z,64.10
2017-12-11T07:17:23.616Z,64.10
2017-12-11T07:19:28.925Z,64.10
2017-12-11T07:21:33.038Z,63.90
2017-12-11T07:23:38.523Z,64.40
2017-12-11T07:25:42.012Z,63.80
2017-12-11T07:27:46.503Z,64.00
2017-12-11T07:29:50.055Z,63.60
2017-12-11T07:31:53.568Z,64.00
2017-12-11T07:33:57.064Z,64.60
2017-12-11T07:36:01.115Z,63.30
2017-12-11T07:38:04.615Z,63.90
2017-12-11T07:40:08.117Z,64.10
2017-12-11T07:42:11.638Z,64.00
2017-12-11T07:44:15.136Z,63.80
2017-12-11T07:46:18.675Z,63.10
2017-12-11T07:48:22.236Z,64.10
2017-12-11T07:50:25.726Z,64.00
2017-12-11T07:52:30.014Z,63.80
2017-12-11T07:54:34.305Z,64.50
2017-12-11T07:56:37.792Z,63.60
2017-12-11T07:58:41.318Z,63.40
2017-12-11T08:00:44.802Z,64.10
2017-12-11T08:02:48.354Z,63.40
2017-12-11T08:04:52.574Z,63.90
2017-12-11T08:06:56.144Z,64.00
2017-12-11T08:09:00.349Z,64.40
2017-12-11T08:11:04.569Z,64.60
2017-12-11T08:13:08.156Z,64.50
2017-12-11T08:15:11.660Z,64.20
2017-12-11T08:17:15.928Z,63.70
2017-12-11T08:19:19.435Z,63.90
2017-12-11T08:21:22.922Z,63.00
2017-12-11T08:23:27.195Z,62.80
2017-12-11T08:25:31.568Z,62.70
2017-12-11T08:27:35.892Z,63.00
2017-12-11T08:29:39.360Z,62.90
2017-12-11T08:31:42.782Z,63.10
2017-12-11T08:33:47.024Z,62.30
2017-12-11T08:35:51.240Z,63.20
2017-12-11T08:37:58.064Z,63.10
2017-12-11T08:40:04.505Z,63.20
2017-12-11T08:42:10.645Z,63.10
2017-12-11T08:44:14.208Z,63.80
2017-12-11T08:46:17.668Z,63.00
2017-12-11T08:48:21.117Z,63.40
2017-12-11T08:50:25.303Z,63.40
2017-12-11T08:52:29.536Z,63.70
2017-12-11T08:54:33.752Z,63.50
2017-12-11T08:56:37.173Z,63.50
2017-12-11T08:58:41.428Z,64.70
2017-12-11T09:00:45.649Z,64.40
2017-12-11T09:02:49.846Z,64.30
2017-12-11T09:04:54.149Z,64.30
2017-12-11T09:06:57.648Z,64.40
2017-12-11T09:09:02.060Z,64.60
2017-12-11T09:11:05.487Z,64.10
2017-12-11T09:13:08.957Z,64.20
2017-12-11T09:15:12.533Z,64.30
2017-12-11T09:17:15.975Z,65.20
2017-12-11T09:19:19.443Z,65.10
2017-12-11T09:21:23.753Z,64.50
2017-12-11T09:23:27.251Z,64.40
2017-12-11T09:25:30.782Z,64.70
2017-12-11T09:27:34.248Z,64.60
2017-12-11T09:29:37.705Z,65.10
2017-12-11T09:31:41.130Z,65.10
2017-12-11T09:33:45.372Z,64.00
2017-12-11T09:35:48.878Z,64.60
2017-12-11T09:37:52.316Z,64.70
2017-12-11T09:39:55.795Z,64.60
2017-12-11T09:42:00.100Z,65.40
2017-12-11T09:44:03.529Z,65.50
2017-12-11T09:46:07.829Z,64.10
2017-12-11T09:48:12.056Z,65.40
2017-12-11T09:50:16.457Z,65.20
2017-12-11T09:52:19.905Z,65.30
2017-12-11T09:54:23.606Z,65.80
2017-12-11T09:56:27.912Z,64.70
2017-12-11T09:58:31.399Z,64.80
2017-12-11T10:00:34.964Z,65.10
2017-12-11T10:02:38.458Z,64.40
2017-12-11T10:04:42.702Z,64.90
2017-12-11T10:06:46.195Z,65.00
2017-12-11T10:08:49.687Z,65.30
2017-12-11T10:10:53.209Z,66.30
2017-12-11T10:12:56.703Z,66.30
2017-12-11T10:15:00.175Z,66.50
2017-12-11T10:17:03.675Z,66.90
2017-12-11T10:19:07.118Z,66.90
2017-12-11T10:21:10.551Z,67.60
2017-12-11T10:23:14.830Z,66.00
2017-12-11T10:25:18.362Z,66.00
2017-12-11T10:27:22.646Z,66.60
2017-12-11T10:29:26.107Z,66.60
2017-12-11T10:31:29.647Z,66.40
2017-12-11T10:33:33.888Z,66.00
2017-12-11T10:35:37.472Z,66.00
2017-12-11T10:37:41.723Z,66.00
2017-12-11T10:39:45.187Z,65.80
2017-12-11T10:41:48.608Z,66.60
2017-12-11T10:43:52.107Z,66.10
2017-12-11T10:45:55.610Z,66.00
2017-12-11T10:47:59.104Z,66.40
2017-12-11T10:50:02.597Z,66.10
2017-12-11T10:52:06.059Z,65.90
2017-12-11T10:54:09.555Z,66.00
2017-12-11T10:56:13.013Z,65.60
2017-12-11T10:58:16.483Z,65.40
2017-12-11T11:00:19.960Z,65.60
2017-12-11T11:02:23.473Z,65.40
2017-12-11T11:04:26.930Z,64.90
2017-12-11T11:06:30.358Z,65.20
2017-12-11T11:08:33.832Z,65.30
2017-12-11T11:10:37.243Z,65.00
2017-12-11T11:12:41.487Z,64.10
2017-12-11T11:14:46.276Z,64.60
2017-12-11T11:16:50.434Z,64.60
2017-12-11T11:18:54.749Z,64.20
2017-12-11T11:20:58.940Z,63.80
2017-12-11T11:23:02.389Z,63.90
2017-12-11T11:25:05.866Z,64.30
2017-12-11T11:27:09.317Z,64.20
2017-12-11T11:29:12.767Z,64.40
2017-12-11T11:31:16.223Z,63.60
2017-12-11T11:33:20.477Z,64.20
2017-12-11T11:35:23.919Z,64.20
2017-12-11T11:37:27.385Z,64.30
2017-12-11T11:39:30.853Z,63.60
2017-12-11T11:41:34.358Z,64.10
2017-12-11T11:43:37.799Z,63.90
2017-12-11T11:45:42.053Z,63.60
2017-12-11T11:47:45.444Z,63.50
2017-12-11T11:49:50.209Z,63.60
2017-12-11T11:51:53.620Z,63.60
2017-12-11T11:53:57.059Z,62.90
2017-12-11T11:56:00.795Z,62.50
2017-12-11T11:58:05.056Z,62.00
2017-12-11T12:00:08.632Z,61.80
2017-12-11T12:02:12.113Z,61.60
2017-12-11T12:04:16.309Z,62.50
2017-12-11T12:06:20.681Z,61.40
2017-12-11T12:08:24.116Z,61.40
2017-12-11T12:10:27.588Z,61.50
2017-12-11T12:12:31.104Z,61.90
2017-12-11T12:14:34.562Z,61.80
2017-12-11T12:16:38.033Z,61.60
2017-12-11T12:18:42.228Z,60.10
2017-12-11T12:20:46.459Z,60.10
2017-12-11T12:22:49.948Z,60.20
2017-12-11T12:24:53.518Z,58.30
2017-12-11T12:26:57.903Z,56.70
2017-12-11T12:29:01.356Z,55.10
2017-12-11T12:31:04.894Z,53.70
2017-12-11T12:33:08.419Z,51.90
2017-12-11T12:35:11.860Z,46.00
2017-12-11T12:37:15.417Z,48.90
2017-12-11T12:39:18.850Z,48.80
2017-12-11T12:41:22.324Z,49.90
2017-12-11T12:43:26.574Z,46.40
2017-12-11T12:45:30.043Z,46.40
2017-12-11T12:47:33.526Z,47.20
2017-12-11T12:49:36.988Z,45.70
2017-12-11T12:51:41.161Z,43.80
2017-12-11T12:53:44.607Z,41.50
2017-12-11T12:55:48.127Z,42.50
2017-12-11T12:57:52.035Z,42.20
2017-12-11T12:59:55.504Z,43.40
2017-12-11T13:01:59.540Z,39.70
2017-12-11T13:04:03.063Z,40.80
2017-12-11T13:06:06.496Z,42.70
2017-12-11T13:08:09.942Z,44.60
2017-12-11T13:10:14.200Z,44.30
2017-12-11T13:12:17.628Z,44.10
2017-12-11T13:14:21.076Z,43.90
2017-12-11T13:16:24.503Z,37.30
2017-12-11T13:18:28.041Z,39.00
2017-12-11T13:20:31.560Z,38.60
2017-12-11T13:22:35.235Z,38.00
2017-12-11T13:24:38.710Z,39.00
2017-12-11T13:26:42.330Z,38.00
2017-12-11T13:28:46.807Z,38.80
2017-12-11T13:30:50.324Z,40.50
2017-12-11T13:32:53.871Z,39.90
2017-12-11T13:34:57.343Z,41.40
2017-12-11T13:37:02.306Z,39.40
2017-12-11T13:39:05.897Z,37.40
2017-12-11T13:41:10.313Z,36.70
2017-12-11T13:43:14.891Z,36.30
2017-12-11T13:45:18.412Z,36.60
2017-12-11T13:47:21.882Z,38.30
2017-12-11T13:49:25.435Z,38.10
2017-12-11T13:51:29.082Z,37.40
2017-12-11T13:53:32.553Z,35.70
2017-12-11T13:55:36.012Z,35.50
2017-12-11T13:57:40.879Z,38.30
2017-12-11T13:59:44.291Z,36.30
2017-12-11T14:01:47.899Z,36.00
2017-12-11T14:03:52.135Z,36.90
2017-12-11T14:05:55.806Z,37.60
2017-12-11T14:08:00.526Z,36.40
2017-12-11T14:10:04.047Z,37.40
2017-12-11T14:12:07.480Z,36.40
2017-12-11T14:14:10.972Z,37.10
2017-12-11T14:16:14.422Z,36.20
2017-12-11T14:18:18.829Z,39.00
2017-12-11T14:20:22.275Z,38.80
2017-12-11T14:22:25.769Z,38.40
2017-12-11T14:24:29.206Z,38.80
2017-12-11T14:26:32.642Z,39.40
2017-12-11T14:28:36.885Z,42.40
2017-12-11T14:30:40.318Z,42.20
2017-12-11T14:32:44.619Z,42.90
2017-12-11T14:34:48.079Z,43.10
2017-12-11T14:36:51.563Z,44.80
2017-12-11T14:38:55.212Z,45.40
2017-12-11T14:40:58.639Z,44.30
2017-12-11T14:43:03.207Z,42.20
2017-12-11T14:45:06.916Z,42.00
2017-12-11T14:47:10.357Z,41.10
2017-12-11T14:49:13.925Z,41.00
2017-12-11T14:51:17.407Z,40.90
2017-12-11T14:53:20.881Z,41.20
2017-12-11T14:55:24.358Z,41.20
2017-12-11T14:57:28.930Z,41.20
2017-12-11T14:59:32.509Z,40.20
2017-12-11T15:01:36.586Z,42.10
2017-12-11T15:03:40.018Z,41.70
2017-12-11T15:05:43.740Z,41.10
2017-12-11T15:07:48.672Z,40.80
2017-12-11T15:09:52.636Z,40.20
2017-12-11T15:11:56.183Z,39.40
2017-12-11T15:14:00.413Z,39.70
2017-12-11T15:16:04.158Z,39.70
2017-12-11T15:18:07.713Z,40.20
2017-12-11T15:20:11.342Z,38.70
2017-12-11T15:22:16.244Z,39.10
2017-12-11T15:24:20.228Z,39.10
2017-12-11T15:26:23.815Z,39.70
2017-12-11T15:28:27.509Z,39.10
2017-12-11T15:30:31.824Z,39.30
2017-12-11T15:32:35.434Z,39.30
2017-12-11T15:34:39.112Z,40.10
2017-12-11T15:36:43.225Z,39.20
2017-12-11T15:38:47.565Z,39.10
2017-12-11T15:40:52.021Z,38.90
2017-12-11T15:42:55.857Z,37.70
2017-12-11T15:45:00.276Z,37.60
2017-12-11T15:47:04.508Z,38.70
2017-12-11T15:49:08.654Z,38.90
2017-12-11T15:51:13.564Z,38.60
2017-12-11T15:53:17.226Z,37.70
2017-12-11T15:55:21.331Z,38.50
2017-12-11T15:57:24.806Z,38.00
2017-12-11T15:59:29.167Z,38.40
2017-12-11T16:01:32.648Z,38.50
2017-12-11T16:03:40.535Z,38.20
2017-12-11T16:05:45.008Z,38.40
2017-12-11T16:07:48.476Z,38.60
2017-12-11T16:09:52.016Z,38.80
2017-12-11T16:11:56.106Z,38.20
2017-12-11T16:14:00.345Z,39.50
2017-12-11T16:16:04.836Z,39.60
2017-12-11T16:18:08.334Z,39.50
2017-12-11T16:20:11.850Z,39.70
2017-12-11T16:22:15.307Z,39.70
2017-12-11T16:24:19.565Z,39.60
2017-12-11T16:26:23.157Z,39.40
2017-12-11T16:28:26.664Z,40.10
2017-12-11T16:30:31.176Z,40.10
2017-12-11T16:32:37.176Z,39.50
2017-12-11T16:34:42.535Z,38.50
2017-12-11T16:36:46.642Z,38.90
2017-12-11T16:38:50.133Z,39.30
2017-12-11T16:40:53.726Z,39.40
2017-12-11T16:42:57.192Z,39.20
2017-12-11T16:45:01.028Z,39.40
2017-12-11T16:47:05.335Z,39.80
2017-12-11T16:49:09.635Z,39.00
2017-12-11T16:51:14.790Z,39.20
2017-12-11T16:53:18.686Z,39.30
2017-12-11T16:55:22.958Z,40.20
2017-12-11T16:57:30.865Z,40.80
2017-12-11T16:59:35.934Z,39.60
2017-12-11T17:01:39.615Z,39.60
2017-12-11T17:03:43.283Z,40.30
2017-12-11T17:05:47.598Z,40.60
2017-12-11T17:07:52.734Z,40.30
2017-12-11T17:09:56.916Z,40.40
2017-12-11T17:12:00.565Z,40.40
2017-12-11T17:14:04.086Z,40.30
2017-12-11T17:16:07.576Z,41.00
2017-12-11T17:18:11.895Z,40.70
2017-12-11T17:20:15.369Z,40.90
2017-12-11T17:22:19.243Z,39.90
2017-12-11T17:24:23.605Z,40.10
2017-12-11T17:26:27.087Z,40.20
2017-12-11T17:28:31.452Z,39.50
2017-12-11T17:30:35.027Z,39.70
2017-12-11T17:32:38.498Z,40.10
2017-12-11T17:34:42.951Z,40.30
2017-12-11T17:36:46.402Z,39.70
2017-12-11T17:38:50.024Z,39.40
2017-12-11T17:40:53.993Z,39.10
2017-12-11T17:42:58.983Z,39.00
2017-12-11T17:45:02.475Z,38.80
2017-12-11T17:47:06.355Z,40.00
2017-12-11T17:49:11.975Z,39.70
2017-12-11T17:51:16.869Z,39.30
2017-12-11T17:53:21.973Z,40.00
2017-12-11T17:55:26.255Z,39.70
2017-12-11T17:57:30.093Z,39.70
2017-12-11T17:59:33.993Z,40.10
2017-12-11T18:01:37.480Z,39.60
2017-12-11T18:03:40.962Z,39.60
2017-12-11T18:05:44.369Z,40.40
2017-12-11T18:07:48.217Z,39.20
2017-12-11T18:09:53.076Z,38.30
2017-12-11T18:11:56.627Z,38.40
2017-12-11T18:14:00.251Z,38.60
2017-12-11T18:16:03.815Z,39.20
2017-12-11T18:18:07.254Z,37.90
2017-12-11T18:20:10.999Z,38.90
2017-12-11T18:22:15.607Z,37.90
2017-12-11T18:24:19.073Z,38.10
2017-12-11T18:26:22.582Z,37.90
2017-12-11T18:28:26.594Z,38.30
2017-12-11T18:30:30.157Z,38.40
2017-12-11T18:32:34.880Z,38.50
2017-12-11T18:34:38.470Z,38.30
2017-12-11T18:36:42.813Z,39.00
2017-12-11T18:38:46.375Z,38.60
2017-12-11T18:40:49.987Z,39.00
2017-12-11T18:42:53.668Z,39.00
2017-12-11T18:44:57.857Z,38.90
2017-12-11T18:47:01.354Z,38.80
2017-12-11T18:49:05.560Z,38.10
2017-12-11T18:51:09.026Z,38.10
2017-12-11T18:53:12.480Z,39.00
2017-12-11T18:55:17.156Z,37.90
2017-12-11T18:57:20.819Z,38.20
2017-12-11T18:59:25.157Z,38.40
2017-12-11T19:01:30.131Z,38.50
2017-12-11T19:03:33.611Z,38.90
2017-12-11T19:05:37.740Z,37.90
2017-12-11T19:07:42.476Z,39.30
2017-12-11T19:09:47.676Z,39.50
2017-12-11T19:11:51.487Z,39.40
2017-12-11T19:13:55.574Z,39.40
2017-12-11T19:15:59.716Z,38.30
2017-12-11T19:18:04.406Z,39.20
2017-12-11T19:20:07.879Z,38.80
2017-12-11T19:22:11.427Z,38.50
2017-12-11T19:24:15.646Z,38.10
2017-12-11T19:26:20.445Z,37.80
2017-12-11T19:28:23.905Z,38.20
2017-12-11T19:30:28.258Z,38.20
2017-12-11T19:32:31.880Z,37.90
2017-12-11T19:34:36.084Z,38.10
2017-12-11T19:36:40.718Z,38.10
2017-12-11T19:38:46.407Z,38.40
2017-12-11T19:40:50.192Z,38.30
2017-12-11T19:42:53.655Z,38.70
2017-12-11T19:44:57.122Z,37.30
2017-12-11T19:47:00.569Z,37.80
2017-12-11T19:49:06.425Z,38.10
2017-12-11T19:51:11.352Z,38.20
2017-12-11T19:53:18.151Z,37.60
2017-12-11T19:55:22.933Z,37.50
2017-12-11T19:57:37.044Z,37.60
2017-12-11T19:59:40.702Z,37.60
2017-12-11T20:01:44.130Z,38.40
2017-12-11T20:03:47.559Z,38.20
2017-12-11T20:05:51.037Z,39.30
2017-12-11T20:07:54.444Z,39.00
2017-12-11T20:09:57.919Z,38.90
2017-12-11T20:12:01.318Z,39.40
2017-12-11T20:14:04.732Z,38.60
2017-12-11T20:16:09.802Z,38.30
2017-12-11T20:18:13.393Z,38.40
2017-12-11T20:20:16.875Z,37.70
2017-12-11T20:22:20.320Z,37.60
2017-12-11T20:24:23.741Z,37.90
2017-12-11T20:26:27.208Z,37.40
2017-12-11T20:28:31.416Z,39.10
2017-12-11T20:30:34.871Z,38.80
2017-12-11T20:32:38.360Z,40.20
2017-12-11T20:34:41.804Z,41.70
2017-12-11T20:36:46.059Z,44.80
2017-12-11T20:38:49.491Z,45.00
2017-12-11T20:40:54.591Z,46.10
2017-12-11T20:42:58.077Z,46.30
2017-12-11T20:45:01.516Z,48.50
2017-12-11T20:47:04.960Z,47.00
2017-12-11T20:49:09.241Z,47.60
2017-12-11T20:51:13.454Z,47.40
2017-12-11T20:53:16.877Z,46.90
2017-12-11T20:55:20.432Z,46.80
2017-12-11T20:57:24.052Z,46.30
2017-12-11T20:59:27.522Z,46.40
2017-12-11T21:01:31.297Z,46.20
2017-12-11T21:03:36.165Z,47.70
2017-12-11T21:05:41.818Z,47.80
2017-12-11T21:07:46.745Z,47.70
2017-12-11T21:09:53.255Z,46.80
2017-12-11T21:11:59.007Z,46.50
2017-12-11T21:14:02.571Z,47.30
2017-12-11T21:16:06.215Z,47.30
2017-12-11T21:18:10.995Z,47.80
2017-12-11T21:20:14.506Z,47.20
2017-12-11T21:22:17.954Z,47.70
2017-12-11T21:24:22.215Z,48.70
2017-12-11T21:26:25.720Z,48.60
2017-12-11T21:28:29.405Z,48.70
2017-12-11T21:30:33.430Z,48.30
2017-12-11T21:32:37.269Z,48.90
2017-12-11T21:34:41.542Z,50.20
2017-12-11T21:36:45.835Z,50.00
2017-12-11T21:38:49.273Z,50.10
2017-12-11T21:40:53.566Z,50.20
2017-12-11T21:42:57.830Z,50.10
2017-12-11T21:45:02.065Z,50.10
2017-12-11T21:47:05.510Z,49.90
2017-12-11T21:49:09.834Z,50.50
2017-12-11T21:51:15.369Z,52.10
2017-12-11T21:53:18.801Z,51.40
2017-12-11T21:55:23.151Z,51.90
2017-12-11T21:57:26.589Z,51.50
2017-12-11T21:59:30.673Z,51.50
2017-12-11T22:01:34.769Z,51.30
2017-12-11T22:03:38.257Z,51.00
2017-12-11T22:05:41.739Z,50.60
2017-12-11T22:07:45.146Z,49.50
2017-12-11T22:09:48.627Z,44.50
2017-12-11T22:11:52.186Z,45.70
2017-12-11T22:13:55.690Z,44.70
2017-12-11T22:15:59.164Z,45.80
2017-12-11T22:18:02.607Z,42.90
2017-12-11T22:20:06.767Z,43.00
2017-12-11T22:22:11.037Z,43.60
2017-12-11T22:24:14.631Z,43.50
2017-12-11T22:26:19.241Z,43.50
2017-12-11T22:28:22.747Z,43.20
2017-12-11T22:30:26.551Z,43.30
2017-12-11T22:32:30.021Z,43.70
2017-12-11T22:34:33.574Z,40.20
2017-12-11T22:36:37.076Z,41.50
2017-12-11T22:38:41.386Z,36.00
2017-12-11T22:40:44.794Z,33.70
2017-12-11T22:42:50.115Z,35.10
2017-12-11T22:44:54.948Z,36.20
2017-12-11T22:46:59.030Z,36.20
2017-12-11T22:49:04.576Z,34.50
2017-12-11T22:51:08.338Z,33.60
2017-12-11T22:53:11.787Z,36.20
2017-12-11T22:55:16.002Z,36.20
2017-12-11T22:57:19.624Z,36.20
2017-12-11T22:59:23.093Z,36.60
2017-12-11T23:01:26.560Z,36.00
2017-12-11T23:03:30.047Z,34.70
2017-12-11T23:05:33.496Z,35.20
2017-12-11T23:07:37.769Z,34.10
2017-12-11T23:09:41.374Z,34.00
2017-12-11T23:11:44.786Z,34.50
2017-12-11T23:13:49.711Z,32.30
2017-12-11T23:15:55.476Z,32.10
2017-12-11T23:17:58.979Z,32.30
2017-12-11T23:20:02.642Z,31.80
2017-12-11T23:22:06.084Z,34.60
2017-12-11T23:24:09.635Z,30.60
2017-12-11T23:26:13.457Z,32.50
2017-12-11T23:28:17.549Z,31.30
2017-12-11T23:30:21.944Z,32.20
2017-12-11T23:32:25.836Z,32.90
2017-12-11T23:34:29.299Z,33.00
2017-12-11T23:36:32.778Z,32.10
2017-12-11T23:38:38.339Z,30.30
2017-12-11T23:40:42.599Z,31.30
2017-12-11T23:42:46.942Z,32.00
2017-12-11T23:44:51.440Z,31.50
2017-12-11T23:46:55.071Z,31.50
2017-12-11T23:48:59.576Z,30.40
2017-12-11T23:51:03.947Z,31.40
2017-12-11T23:53:07.999Z,31.20
2017-12-11T23:55:12.048Z,31.20
2017-12-11T23:57:16.821Z,31.80
2017-12-11T23:59:20.759Z,33.00
